createdAt,value
2019-05-29T00:02:02.746Z,101352.42
2019-05-29T00:04:31.144Z,101359.60
2019-05-29T00:06:59.579Z,101355.72
2019-05-29T00:09:27.986Z,101362.39
2019-05-29T00:11:56.413Z,101360.24
2019-05-29T00:14:27.408Z,101362.77
2019-05-29T00:16:54.981Z,101365.00
2019-05-29T00:19:23.375Z,101366.39
2019-05-29T00:21:51.807Z,101372.17
2019-05-29T00:24:21.107Z,101370.12
2019-05-29T00:26:49.525Z,101375.42
2019-05-29T00:29:18.033Z,101380.00
2019-05-29T00:31:46.431Z,101385.66
2019-05-29T00:34:15.222Z,101389.20
2019-05-29T00:36:43.944Z,101388.05
2019-05-29T00:39:12.711Z,101391.95
2019-05-29T00:41:41.372Z,101399.74
2019-05-29T00:44:09.778Z,101401.61
2019-05-29T00:46:38.208Z,101405.49
2019-05-29T00:49:07.678Z,101408.16
2019-05-29T00:51:36.221Z,101405.24
2019-05-29T00:54:04.792Z,101409.30
2019-05-29T00:56:33.221Z,101415.55
2019-05-29T00:59:01.630Z,101413.48
2019-05-29T01:01:30.068Z,101421.80
2019-05-29T01:03:58.466Z,101421.93
2019-05-29T01:06:26.894Z,101422.11
2019-05-29T01:08:55.300Z,101425.83
2019-05-29T01:11:23.739Z,101435.78
2019-05-29T01:13:52.135Z,101435.78
2019-05-29T01:16:21.649Z,101434.41
2019-05-29T01:18:50.153Z,101434.86
2019-05-29T01:21:18.630Z,101434.86
2019-05-29T01:23:47.061Z,101432.92
2019-05-29T01:26:16.492Z,101443.58
2019-05-29T01:28:45.075Z,101445.05
2019-05-29T01:31:13.659Z,101444.86
2019-05-29T01:33:42.078Z,101454.49
2019-05-29T01:36:10.485Z,101451.56
2019-05-29T01:38:38.918Z,101461.86
2019-05-29T01:41:07.321Z,101461.86
2019-05-29T01:43:35.762Z,101470.98
2019-05-29T01:46:04.238Z,101470.25
2019-05-29T01:48:32.674Z,101467.51
2019-05-29T01:51:01.070Z,101467.51
2019-05-29T01:53:29.499Z,101475.95
2019-05-29T01:55:57.902Z,101480.52
2019-05-29T01:58:26.403Z,101486.62
2019-05-29T02:00:54.811Z,101491.73
2019-05-29T02:03:23.981Z,101488.28
2019-05-29T02:05:52.525Z,101488.28
2019-05-29T02:08:22.045Z,101497.16
2019-05-29T02:10:50.639Z,101492.34
2019-05-29T02:13:19.496Z,101498.77
2019-05-29T02:15:47.951Z,101504.63
2019-05-29T02:18:16.770Z,101509.02
2019-05-29T02:20:45.465Z,101509.02
2019-05-29T02:23:13.899Z,101509.50
2019-05-29T02:25:42.308Z,101512.41
2019-05-29T02:28:10.732Z,101519.63
2019-05-29T02:30:39.196Z,101519.63
2019-05-29T02:33:07.698Z,101525.86
2019-05-29T02:35:36.103Z,101525.86
2019-05-29T02:38:04.700Z,101530.06
2019-05-29T02:40:33.099Z,101530.06
2019-05-29T02:43:01.538Z,101531.72
2019-05-29T02:45:50.707Z,101536.24
2019-05-29T02:48:00.138Z,101528.24
2019-05-29T02:50:29.386Z,101544.28
2019-05-29T02:52:58.754Z,101544.28
2019-05-29T02:55:28.807Z,101552.02
2019-05-29T02:57:57.403Z,101553.36
2019-05-29T03:00:46.646Z,101553.36
2019-05-29T03:03:15.073Z,101556.72
2019-05-29T03:05:43.486Z,101547.44
2019-05-29T03:08:11.980Z,101564.63
2019-05-29T03:10:40.385Z,101576.66
2019-05-29T03:13:08.858Z,101576.66
2019-05-29T03:15:37.296Z,101587.96
2019-05-29T03:18:05.707Z,101587.96
2019-05-29T03:20:34.570Z,101591.17
2019-05-29T03:23:03.216Z,101591.17
2019-05-29T03:25:32.623Z,101590.80
2019-05-29T03:28:01.035Z,101590.80
2019-05-29T03:30:31.817Z,101596.42
2019-05-29T03:32:59.601Z,101610.13
2019-05-29T03:35:31.437Z,101610.13
2019-05-29T03:37:59.111Z,101614.31
2019-05-29T03:40:29.016Z,101621.48
2019-05-29T03:42:57.805Z,101621.48
2019-05-29T03:45:26.736Z,101632.30
2019-05-29T03:47:55.722Z,101632.30
2019-05-29T03:50:26.265Z,101640.56
2019-05-29T03:52:54.291Z,101645.02
2019-05-29T03:55:22.792Z,101645.02
2019-05-29T03:57:51.197Z,101647.53
2019-05-29T04:00:19.778Z,101652.05
2019-05-29T04:02:48.203Z,101660.73
2019-05-29T04:05:17.008Z,101660.73
2019-05-29T04:07:45.417Z,101646.42
2019-05-29T04:10:14.095Z,101660.62
2019-05-29T04:12:42.503Z,101663.08
2019-05-29T04:15:11.007Z,101662.70
2019-05-29T04:17:39.793Z,101665.97
2019-05-29T04:20:08.302Z,101665.97
2019-05-29T04:22:44.756Z,101673.81
2019-05-29T04:25:14.955Z,101676.22
2019-05-29T04:27:43.908Z,101680.33
2019-05-29T04:30:12.956Z,101687.27
2019-05-29T04:32:41.430Z,101699.12
2019-05-29T04:35:09.926Z,101695.30
2019-05-29T04:37:39.922Z,101695.30
2019-05-29T04:40:08.856Z,101698.59
2019-05-29T04:42:38.147Z,101706.30
2019-05-29T04:45:08.153Z,101706.30
2019-05-29T04:47:37.366Z,101694.08
2019-05-29T04:50:07.096Z,101698.70
2019-05-29T04:52:37.158Z,101707.98
2019-05-29T04:55:05.927Z,101714.86
2019-05-29T04:57:34.942Z,101716.24
2019-05-29T05:00:04.273Z,101726.57
2019-05-29T05:02:33.072Z,101729.36
2019-05-29T05:05:01.596Z,101729.36
2019-05-29T05:07:31.089Z,101730.98
2019-05-29T05:09:59.644Z,101729.89
2019-05-29T05:12:29.504Z,101723.39
2019-05-29T05:14:58.593Z,101716.90
2019-05-29T05:17:27.013Z,101726.70
2019-05-29T05:19:55.423Z,101724.50
2019-05-29T05:22:23.857Z,101726.04
2019-05-29T05:24:52.316Z,101728.97
2019-05-29T05:27:20.707Z,101729.15
2019-05-29T05:29:49.112Z,101731.94
2019-05-29T05:32:17.540Z,101729.63
2019-05-29T05:34:45.949Z,101732.69
2019-05-29T05:37:14.382Z,101732.28
2019-05-29T05:39:42.787Z,101725.55
2019-05-29T05:42:11.218Z,101732.23
2019-05-29T05:44:39.626Z,101730.88
2019-05-29T05:47:08.064Z,101734.05
2019-05-29T05:49:37.344Z,101730.95
2019-05-29T05:52:05.871Z,101737.70
2019-05-29T05:54:35.345Z,101743.98
2019-05-29T05:57:03.993Z,101753.38
2019-05-29T05:59:33.531Z,101758.16
2019-05-29T06:02:02.246Z,101768.09
2019-05-29T06:04:31.733Z,101765.77
2019-05-29T06:07:00.332Z,101777.34
2019-05-29T06:09:28.735Z,101782.05
2019-05-29T06:11:57.143Z,101794.50
2019-05-29T06:14:25.578Z,101789.87
2019-05-29T06:16:54.049Z,101791.92
2019-05-29T06:19:22.462Z,101797.06
2019-05-29T06:21:50.866Z,101800.80
2019-05-29T06:24:19.301Z,101795.46
2019-05-29T06:26:47.710Z,101796.27
2019-05-29T06:29:16.140Z,101802.50
2019-05-29T06:31:44.553Z,101802.02
2019-05-29T06:34:12.997Z,101810.98
2019-05-29T06:36:41.711Z,101814.10
2019-05-29T06:39:10.289Z,101816.36
2019-05-29T06:41:40.113Z,101826.13
2019-05-29T06:44:08.944Z,101819.58
2019-05-29T06:46:38.359Z,101825.38
2019-05-29T06:49:06.833Z,101822.64
2019-05-29T06:51:35.247Z,101840.03
2019-05-29T06:54:03.680Z,101836.13
2019-05-29T06:56:32.083Z,101842.34
2019-05-29T06:59:00.534Z,101841.44
2019-05-29T07:01:28.998Z,101845.67
2019-05-29T07:04:11.487Z,101844.74
2019-05-29T07:06:27.553Z,101848.31
2019-05-29T07:08:56.253Z,101849.63
2019-05-29T07:11:24.658Z,101850.00
2019-05-29T07:13:53.092Z,101854.34
2019-05-29T07:16:21.513Z,101856.61
2019-05-29T07:19:32.760Z,101856.18
2019-05-29T07:21:20.155Z,101864.11
2019-05-29T07:23:48.957Z,101867.07
2019-05-29T07:26:17.582Z,101872.01
2019-05-29T07:29:03.447Z,101874.19
2019-05-29T07:31:16.156Z,101869.69
2019-05-29T07:33:45.275Z,101881.25
2019-05-29T07:36:13.846Z,101873.16
2019-05-29T07:38:48.867Z,101886.68
2019-05-29T07:41:12.451Z,101877.44
2019-05-29T07:43:41.806Z,101881.58
2019-05-29T07:46:10.350Z,101878.30
2019-05-29T07:48:40.258Z,101880.91
2019-05-29T07:51:08.881Z,101895.87
2019-05-29T07:53:38.191Z,101890.08
2019-05-29T07:56:21.636Z,101897.67
2019-05-29T07:58:36.822Z,101888.02
2019-05-29T08:01:13.348Z,101888.52
2019-05-29T08:03:35.384Z,101894.44
2019-05-29T08:06:03.946Z,101896.40
2019-05-29T08:08:32.404Z,101900.74
2019-05-29T08:11:00.837Z,101896.39
2019-05-29T08:13:29.234Z,101894.30
2019-05-29T08:16:03.162Z,101900.28
2019-05-29T08:18:27.796Z,101895.78
2019-05-29T08:20:56.236Z,101892.89
2019-05-29T08:23:24.630Z,101903.81
2019-05-29T08:25:53.059Z,101907.14
2019-05-29T08:28:21.462Z,101903.14
2019-05-29T08:30:55.778Z,101913.89
2019-05-29T08:33:20.300Z,101916.66
2019-05-29T08:35:57.653Z,101905.73
2019-05-29T08:38:19.597Z,101911.10
2019-05-29T08:40:48.002Z,101914.53
2019-05-29T08:43:16.438Z,101920.41
2019-05-29T08:45:45.530Z,101919.25
2019-05-29T08:48:13.963Z,101922.88
2019-05-29T08:50:43.582Z,101932.55
2019-05-29T08:53:12.175Z,101935.14
2019-05-29T08:55:40.581Z,101936.77
2019-05-29T08:58:09.009Z,101945.12
2019-05-29T09:00:37.730Z,101948.70
2019-05-29T09:03:06.230Z,101951.77
2019-05-29T09:05:34.640Z,101948.89
2019-05-29T09:08:03.856Z,101938.70
2019-05-29T09:10:32.256Z,101950.98
2019-05-29T09:13:04.746Z,101956.48
2019-05-29T09:15:30.877Z,101958.38
2019-05-29T09:17:59.302Z,101957.69
2019-05-29T09:20:43.526Z,101961.42
2019-05-29T09:22:57.866Z,101960.46
2019-05-29T09:25:26.271Z,101963.59
2019-05-29T09:27:54.706Z,101963.66
2019-05-29T09:30:23.631Z,101964.78
2019-05-29T09:32:53.155Z,101971.57
2019-05-29T09:35:23.303Z,101967.16
2019-05-29T09:37:52.045Z,101966.26
2019-05-29T09:40:21.169Z,101962.22
2019-05-29T09:42:49.726Z,101978.71
2019-05-29T09:45:19.570Z,101975.44
2019-05-29T09:47:48.107Z,101979.92
2019-05-29T09:50:18.548Z,101985.06
2019-05-29T09:52:47.110Z,101983.35
2019-05-29T09:55:15.582Z,101980.98
2019-05-29T09:57:44.024Z,101996.92
2019-05-29T10:00:13.799Z,101991.80
2019-05-29T10:02:42.220Z,101995.83
2019-05-29T10:05:10.930Z,102000.00
2019-05-29T10:07:39.471Z,101993.21
2019-05-29T10:10:12.855Z,102000.78
2019-05-29T10:12:41.309Z,101998.50
2019-05-29T10:15:10.980Z,101990.70
2019-05-29T10:17:39.456Z,101992.42
2019-05-29T10:20:09.125Z,101991.88
2019-05-29T10:22:37.672Z,101987.13
2019-05-29T10:25:06.840Z,101987.03
2019-05-29T10:27:35.248Z,101999.41
2019-05-29T10:30:05.590Z,101997.64
2019-05-29T10:32:33.987Z,101991.91
2019-05-29T10:35:02.434Z,101995.01
2019-05-29T10:37:30.828Z,101999.31
2019-05-29T10:39:59.251Z,101997.44
2019-05-29T10:42:27.652Z,101995.03
2019-05-29T10:44:56.086Z,102000.63
2019-05-29T10:47:24.501Z,102000.81
2019-05-29T10:49:53.826Z,102003.66
2019-05-29T10:52:22.407Z,101999.44
2019-05-29T10:54:50.837Z,102006.78
2019-05-29T10:57:19.318Z,102007.45
2019-05-29T10:59:48.745Z,102010.55
2019-05-29T11:02:17.138Z,102005.34
2019-05-29T11:04:49.486Z,102010.86
2019-05-29T11:07:15.696Z,102011.34
2019-05-29T11:09:45.090Z,102010.41
2019-05-29T11:12:14.396Z,102007.45
2019-05-29T11:14:42.830Z,102007.00
2019-05-29T11:17:11.389Z,102014.67
2019-05-29T11:19:39.795Z,102019.42
2019-05-29T11:22:25.146Z,102016.02
2019-05-29T11:24:38.462Z,102013.92
2019-05-29T11:27:06.901Z,102019.77
2019-05-29T11:29:35.298Z,102025.30
2019-05-29T11:32:03.801Z,102025.89
2019-05-29T11:34:32.203Z,102024.46
2019-05-29T11:37:00.631Z,102024.05
2019-05-29T11:39:29.037Z,102025.08
2019-05-29T11:41:57.467Z,102012.38
2019-05-29T11:44:25.883Z,102015.94
2019-05-29T11:46:54.414Z,102010.30
2019-05-29T11:49:22.880Z,102003.42
2019-05-29T11:51:51.653Z,102000.69
2019-05-29T11:54:20.108Z,102002.96
2019-05-29T11:56:48.540Z,101996.09
2019-05-29T11:59:16.949Z,102000.77
2019-05-29T12:01:50.367Z,101999.72
2019-05-29T12:04:25.744Z,101996.59
2019-05-29T12:06:45.659Z,102003.66
2019-05-29T12:09:29.030Z,102000.97
2019-05-29T12:11:44.248Z,102005.56
2019-05-29T12:14:12.635Z,102008.84
2019-05-29T12:16:41.066Z,102010.13
2019-05-29T12:19:09.473Z,102016.76
2019-05-29T12:21:42.350Z,102017.23
2019-05-29T12:24:08.112Z,102028.28
2019-05-29T12:26:36.546Z,102035.20
2019-05-29T12:29:11.504Z,102033.08
2019-05-29T12:31:35.260Z,102039.07
2019-05-29T12:34:16.350Z,102039.28
2019-05-29T12:36:33.916Z,102040.28
2019-05-29T12:39:04.114Z,102039.11
2019-05-29T12:41:32.639Z,102035.97
2019-05-29T12:44:01.647Z,102037.87
2019-05-29T12:46:30.249Z,102036.34
2019-05-29T12:48:59.508Z,102039.14
2019-05-29T12:51:28.001Z,102036.48
2019-05-29T12:53:56.446Z,102032.98
2019-05-29T12:56:24.858Z,102035.36
2019-05-29T12:58:54.163Z,102032.52
2019-05-29T13:01:22.664Z,102025.30
2019-05-29T13:03:51.114Z,102032.03
2019-05-29T13:06:19.533Z,102027.02
2019-05-29T13:08:48.044Z,102026.13
2019-05-29T13:11:16.456Z,102027.34
2019-05-29T13:13:44.892Z,102025.86
2019-05-29T13:16:13.304Z,102018.48
2019-05-29T13:18:41.746Z,102022.12
2019-05-29T13:21:10.221Z,102017.58
2019-05-29T13:23:45.077Z,102015.98
2019-05-29T13:26:08.857Z,102019.04
2019-05-29T13:28:37.370Z,102021.87
2019-05-29T13:31:06.773Z,102017.14
2019-05-29T13:33:35.355Z,102015.48
2019-05-29T13:36:04.514Z,102013.23
2019-05-29T13:38:33.541Z,102021.20
2019-05-29T13:41:02.525Z,102018.67
2019-05-29T13:43:31.190Z,102018.75
2019-05-29T13:46:00.489Z,102023.11
2019-05-29T13:48:29.094Z,102017.29
2019-05-29T13:50:57.495Z,102023.42
2019-05-29T13:53:25.923Z,102017.56
2019-05-29T13:55:54.326Z,102026.14
2019-05-29T13:58:22.755Z,102015.98
2019-05-29T14:00:53.008Z,102022.16
2019-05-29T14:03:21.436Z,102009.44
2019-05-29T14:05:49.841Z,102007.53
2019-05-29T14:08:18.275Z,102014.73
2019-05-29T14:10:46.694Z,102016.95
2019-05-29T14:13:15.126Z,102013.52
2019-05-29T14:15:43.531Z,102009.72
2019-05-29T14:18:13.040Z,102012.95
2019-05-29T14:20:41.582Z,102012.91
2019-05-29T14:23:09.964Z,102012.76
2019-05-29T14:25:38.391Z,102015.39
2019-05-29T14:28:06.950Z,102017.19
2019-05-29T14:30:35.389Z,102013.58
2019-05-29T14:33:04.429Z,102014.41
2019-05-29T14:35:33.000Z,102018.69
2019-05-29T14:38:01.461Z,102019.63
2019-05-29T14:40:29.898Z,102016.74
2019-05-29T14:42:58.376Z,102015.14
2019-05-29T14:45:26.803Z,102015.14
2019-05-29T14:47:55.209Z,102017.06
2019-05-29T14:50:23.646Z,102016.80
2019-05-29T14:52:52.073Z,102017.26
2019-05-29T14:55:20.545Z,102022.39
2019-05-29T14:57:48.955Z,102026.52
2019-05-29T15:00:24.746Z,102023.27
2019-05-29T15:02:48.056Z,102023.41
2019-05-29T15:05:17.525Z,102028.29
2019-05-29T15:07:45.926Z,102026.75
2019-05-29T15:10:24.981Z,102023.84
2019-05-29T15:12:46.053Z,102023.01
2019-05-29T15:15:16.471Z,102023.95
2019-05-29T15:17:44.752Z,102021.04
2019-05-29T15:20:14.828Z,102020.24
2019-05-29T15:22:43.664Z,102024.09
2019-05-29T15:25:23.015Z,102025.98
2019-05-29T15:27:42.465Z,102025.10
2019-05-29T15:30:14.744Z,102029.98
2019-05-29T15:32:41.414Z,102025.53
2019-05-29T15:35:14.399Z,102029.78
2019-05-29T15:37:40.407Z,102028.83
2019-05-29T15:40:10.939Z,102031.17
2019-05-29T15:42:39.488Z,102035.93
2019-05-29T15:45:09.902Z,102029.66
2019-05-29T15:47:38.444Z,102031.53
2019-05-29T15:50:09.146Z,102034.91
2019-05-29T15:52:37.825Z,102028.41
2019-05-29T15:55:22.012Z,102035.68
2019-05-29T15:57:37.762Z,102028.62
2019-05-29T16:00:09.124Z,102014.70
2019-05-29T16:02:37.610Z,102023.36
2019-05-29T16:05:06.642Z,102016.50
2019-05-29T16:07:35.059Z,102020.13
2019-05-29T16:10:05.174Z,102024.36
2019-05-29T16:12:33.608Z,102012.41
2019-05-29T16:15:02.016Z,102020.20
2019-05-29T16:17:30.479Z,102017.59
2019-05-29T16:19:58.929Z,102020.63
2019-05-29T16:22:27.364Z,102020.42
2019-05-29T16:24:55.760Z,102018.75
2019-05-29T16:27:30.070Z,102015.84
2019-05-29T16:29:54.394Z,102015.78
2019-05-29T16:32:22.894Z,102015.03
2019-05-29T16:34:51.296Z,102012.92
2019-05-29T16:37:19.727Z,102008.41
2019-05-29T16:39:48.137Z,102014.41
2019-05-29T16:42:25.865Z,102009.55
2019-05-29T16:44:54.268Z,102021.98
2019-05-29T16:47:22.781Z,102018.30
2019-05-29T16:49:51.187Z,102016.69
2019-05-29T16:52:20.769Z,102019.94
2019-05-29T16:54:49.523Z,102017.41
2019-05-29T16:57:19.230Z,102016.94
2019-05-29T16:59:47.786Z,102021.34
2019-05-29T17:02:17.631Z,102024.95
2019-05-29T17:04:46.221Z,102017.53
2019-05-29T17:07:16.005Z,102020.65
2019-05-29T17:09:44.611Z,102022.46
2019-05-29T17:12:14.206Z,102021.30
2019-05-29T17:14:42.821Z,102029.34
2019-05-29T17:17:11.276Z,102027.37
2019-05-29T17:19:39.752Z,102023.77
2019-05-29T17:22:08.249Z,102027.28
2019-05-29T17:24:45.140Z,102025.41
2019-05-29T17:27:14.571Z,102030.39
2019-05-29T17:29:43.078Z,102025.59
2019-05-29T17:32:11.510Z,102024.02
2019-05-29T17:34:39.926Z,102023.67
2019-05-29T17:37:08.433Z,102022.72
2019-05-29T17:39:36.835Z,102027.34
2019-05-29T17:42:05.344Z,102025.00
2019-05-29T17:44:33.752Z,102029.17
2019-05-29T17:47:02.200Z,102026.36
2019-05-29T17:49:34.423Z,102026.36
2019-05-29T17:52:00.751Z,102034.00
2019-05-29T17:54:29.153Z,102028.84
2019-05-29T17:56:57.801Z,102023.41
2019-05-29T17:59:26.420Z,102026.59
2019-05-29T18:01:54.878Z,102029.86
2019-05-29T18:04:24.835Z,102029.36
2019-05-29T18:06:58.946Z,102026.99
2019-05-29T18:09:29.218Z,102031.00
2019-05-29T18:11:57.515Z,102030.01
2019-05-29T18:14:31.613Z,102031.00
2019-05-29T18:17:00.015Z,102030.69
2019-05-29T18:19:28.480Z,102031.13
2019-05-29T18:21:56.918Z,102021.15
2019-05-29T18:24:26.081Z,102025.05
2019-05-29T18:26:54.518Z,102032.32
2019-05-29T18:29:24.236Z,102031.44
2019-05-29T18:31:53.034Z,102032.72
2019-05-29T18:34:22.625Z,102038.33
2019-05-29T18:36:51.359Z,102033.87
2019-05-29T18:39:20.180Z,102039.07
2019-05-29T18:41:48.669Z,102040.69
2019-05-29T18:44:17.107Z,102048.19
2019-05-29T18:46:45.514Z,102052.56
2019-05-29T18:49:14.888Z,102052.08
2019-05-29T18:51:43.432Z,102051.80
2019-05-29T18:54:11.865Z,102047.44
2019-05-29T18:56:40.273Z,102059.05
2019-05-29T18:59:08.707Z,102056.36
2019-05-29T19:01:37.122Z,102051.73
2019-05-29T19:04:05.630Z,102056.29
2019-05-29T19:06:34.033Z,102052.91
2019-05-29T19:09:02.466Z,102059.58
2019-05-29T19:11:32.007Z,102057.69
2019-05-29T19:14:00.493Z,102055.95
2019-05-29T19:16:30.007Z,102062.47
2019-05-29T19:18:58.478Z,102066.48
2019-05-29T19:21:26.930Z,102073.64
2019-05-29T19:23:55.393Z,102078.33
2019-05-29T19:26:24.759Z,102088.80
2019-05-29T19:29:06.036Z,102091.03
2019-05-29T19:31:46.352Z,102089.27
2019-05-29T19:34:29.485Z,102102.14
2019-05-29T19:37:09.775Z,102102.95
2019-05-29T19:39:41.359Z,102104.05
2019-05-29T19:42:12.391Z,102109.89
2019-05-29T19:44:41.338Z,102102.58
2019-05-29T19:47:14.558Z,102106.20
2019-05-29T19:49:43.186Z,102110.77
2019-05-29T19:52:11.592Z,102109.93
2019-05-29T19:54:40.038Z,102113.52
2019-05-29T19:57:08.488Z,102112.45
2019-05-29T19:59:37.449Z,102117.40
2019-05-29T20:02:06.027Z,102122.85
2019-05-29T20:04:36.959Z,102121.15
2019-05-29T20:07:05.681Z,102124.34
2019-05-29T20:09:35.453Z,102131.81
2019-05-29T20:12:04.673Z,102133.66
2019-05-29T20:14:33.818Z,102135.63
2019-05-29T20:17:08.763Z,102140.95
2019-05-29T20:19:40.849Z,102144.96
2019-05-29T20:22:08.147Z,102152.19
2019-05-29T20:24:44.120Z,102153.81
2019-05-29T20:27:12.654Z,102154.23
2019-05-29T20:29:41.141Z,102160.84
2019-05-29T20:32:14.794Z,102156.08
2019-05-29T20:34:50.659Z,102154.17
2019-05-29T20:37:21.818Z,102158.03
2019-05-29T20:39:52.518Z,102157.28
2019-05-29T20:42:21.222Z,102155.18
2019-05-29T20:44:49.919Z,102159.20
2019-05-29T20:47:18.956Z,102165.28
2019-05-29T20:49:56.933Z,102165.94
2019-05-29T20:52:27.094Z,102159.44
2019-05-29T20:55:01.481Z,102155.63
2019-05-29T20:57:42.207Z,102159.63
2019-05-29T21:00:18.681Z,102161.89
2019-05-29T21:03:06.673Z,102155.36
2019-05-29T21:05:47.948Z,102161.22
2019-05-29T21:08:30.530Z,102167.42
2019-05-29T21:11:04.566Z,102176.89
2019-05-29T21:13:44.413Z,102167.77
2019-05-29T21:16:21.336Z,102171.23
2019-05-29T21:18:57.455Z,102166.05
2019-05-29T21:21:36.834Z,102165.44
2019-05-29T21:24:13.707Z,102168.96
2019-05-29T21:26:58.912Z,102166.86
2019-05-29T21:29:35.099Z,102170.67
2019-05-29T21:32:06.585Z,102172.05
2019-05-29T21:34:41.933Z,102181.23
2019-05-29T21:37:17.889Z,102185.84
2019-05-29T21:39:55.049Z,102185.86
2019-05-29T21:42:29.483Z,102189.42
2019-05-29T21:45:01.028Z,102184.53
2019-05-29T21:47:39.007Z,102192.73
2019-05-29T21:50:18.719Z,102194.15
2019-05-29T21:52:55.788Z,102197.30
2019-05-29T21:55:29.658Z,102199.67
2019-05-29T21:58:06.332Z,102195.94
2019-05-29T22:00:46.308Z,102197.65
2019-05-29T22:03:21.006Z,102195.66
2019-05-29T22:06:01.070Z,102199.23
2019-05-29T22:08:36.268Z,102194.75
2019-05-29T22:11:11.835Z,102199.30
2019-05-29T22:13:42.766Z,102198.78
2019-05-29T22:16:17.670Z,102190.67
2019-05-29T22:19:04.137Z,102191.11
2019-05-29T22:21:37.286Z,102193.77
2019-05-29T22:24:09.749Z,102193.77
2019-05-29T22:26:39.073Z,102187.61
2019-05-29T22:29:17.852Z,102196.02
2019-05-29T22:31:38.724Z,102191.27
2019-05-29T22:34:07.214Z,102189.19
2019-05-29T22:36:35.614Z,102184.54
2019-05-29T22:39:05.279Z,102184.54
2019-05-29T22:41:33.688Z,102181.40
2019-05-29T22:44:02.722Z,102189.98
2019-05-29T22:46:32.955Z,102185.84
2019-05-29T22:49:07.516Z,102181.27
2019-05-29T22:51:45.219Z,102180.92
2019-05-29T22:54:13.633Z,102180.92
2019-05-29T22:56:42.040Z,102181.70
2019-05-29T22:59:10.472Z,102177.36
2019-05-29T23:01:38.888Z,102177.36
2019-05-29T23:04:07.322Z,102169.42
2019-05-29T23:06:35.725Z,102176.83
2019-05-29T23:09:05.887Z,102176.83
2019-05-29T23:11:34.298Z,102170.67
2019-05-29T23:14:02.700Z,102170.23
2019-05-29T23:16:31.139Z,102170.23
2019-05-29T23:19:00.624Z,102173.47
2019-05-29T23:21:29.220Z,102173.47
2019-05-29T23:23:57.630Z,102159.99
2019-05-29T23:26:26.058Z,102169.41
2019-05-29T23:28:54.755Z,102166.70
2019-05-29T23:31:23.273Z,102156.14
2019-05-29T23:33:52.757Z,102157.31
2019-05-29T23:36:21.298Z,102157.31
2019-05-29T23:38:49.713Z,102143.11
2019-05-29T23:41:18.143Z,102131.02
2019-05-29T23:43:46.549Z,102131.02
2019-05-29T23:46:15.050Z,102132.77
2019-05-29T23:48:43.461Z,102115.79
2019-05-29T23:51:11.891Z,102115.79
2019-05-29T23:53:40.298Z,102125.86
2019-05-29T23:56:08.741Z,102125.86
2019-05-29T23:58:37.144Z,102127.39
